Aurora State Airport
KUAO : now visible

Airfield :











YOU CAN JOIN US ON...

 
LOGIN :

Register | Disclaimer

   EN    FR    IT 

 









Legend :    VFR   Marginal VFR   IFR   Intensive IFR   Very Intensive IFR
Visi :
Ceiling :
>= 8 km
>= 3000ft
5 to 8 km
1000 to 3000 ft
1500m to 5 km
500 to 1000 ft
800 to 1500m
200 to 500 ft
< 800m
< 200 ft
Symbols :   Thunderstorms  Fog  Heavy snow  Heavy precipitations  Wind > 20 kt






- Airport Elevation : 200 ft


KUAO - Aurora State

CURRENT METAR :
  • 161153Z AUTO 00000KT 10SM CLR 17/14 A2999 RMK AO2 SLP153 T01670139 10233 20161 53001

EXPIRED METARs :
  • 161053Z AUTO 00000KT 10SM CLR 17/14 A2999 RMK AO2 SLP152 T01670139
  • 160953Z AUTO 35003KT 10SM CLR 18/14 A2998 RMK AO2 SLP150 T01780139
  • 160853Z AUTO 02003KT 10SM CLR 19/14 A2999 RMK AO2 SLP152 T01940144 58002
  • 160753Z AUTO 02004KT 10SM CLR 21/14 A2999 RMK AO2 SLP153 T02060144 403000139

TAF KUAO
Valid from the 16 at 12:00 until the 17 at 12:00 UTC


161131Z 1612/1712 05006KT P6SM SKC
FM170300 20010G18KT P6SM VCSH SCT080 BKN150
PROB30 1704/1710 VRB10G25KT 5SM TSRA SCT050 BKN080CB
KZSE FIR / North America



MET'MAP, your aeronautical weather chart ! - Copyright ORBIFLY December 2007 - Disclaimer

ORBIFLY MET'MAP TEAM :

Programming & Development : Alexandra Zaïnal
Original concept : Baudouin d'Aumeries
Technical & hardware support : Manuel Goepfert
Assistance : Marc-Olivier Méhu




SOURCES & CREDITS :

   NOAA       Earth
Advisory